createdAt,value
2017-09-28T00:00:48.593Z,55.9
2017-09-28T00:01:50.386Z,55.9
2017-09-28T00:02:51.866Z,55.9
2017-09-28T00:03:53.660Z,56.2
2017-09-28T00:04:55.456Z,56.3
2017-09-28T00:05:57.246Z,55.9
2017-09-28T00:06:58.346Z,56
2017-09-28T00:07:59.453Z,55.9
2017-09-28T00:09:01.583Z,56.1
2017-09-28T00:10:03.041Z,56
2017-09-28T00:11:04.832Z,56
2017-09-28T00:12:05.934Z,56
2017-09-28T00:13:08.059Z,56
2017-09-28T00:14:09.495Z,56
2017-09-28T00:15:11.624Z,56
2017-09-28T00:16:13.751Z,56
2017-09-28T00:17:14.877Z,55.9
2017-09-28T00:18:16.670Z,56
2017-09-28T00:19:17.800Z,55.9
2017-09-28T00:20:19.929Z,55.9
2017-09-28T00:21:21.725Z,56
2017-09-28T00:22:23.851Z,56
2017-09-28T00:23:25.981Z,56
2017-09-28T00:24:27.081Z,56
2017-09-28T00:25:28.513Z,55.6
2017-09-28T00:26:30.304Z,55.5
2017-09-28T00:27:32.076Z,56
2017-09-28T00:28:33.902Z,55.5
2017-09-28T00:29:35.693Z,56
2017-09-28T00:30:37.823Z,55.8
2017-09-28T00:31:39.267Z,56.1
2017-09-28T00:32:41.062Z,56
2017-09-28T00:33:43.198Z,55.6
2017-09-28T00:34:44.983Z,55.6
2017-09-28T00:35:47.113Z,55.6
2017-09-28T00:36:48.917Z,56
2017-09-28T00:37:50.024Z,56
2017-09-28T00:38:51.815Z,55.6
2017-09-28T00:39:53.272Z,56
2017-09-28T00:40:55.063Z,55.5
2017-09-28T00:41:58.253Z,55.6
2017-09-28T00:42:59.685Z,56
2017-09-28T00:44:01.123Z,56.2
2017-09-28T00:45:03.249Z,56
2017-09-28T00:46:05.043Z,56.2
2017-09-28T00:47:06.477Z,56
2017-09-28T00:48:07.926Z,55.6
2017-09-28T00:49:09.364Z,55.5
2017-09-28T00:50:11.135Z,56.1
2017-09-28T00:51:12.903Z,55.5
2017-09-28T00:52:14.696Z,55.5
2017-09-28T00:53:16.150Z,55.5
2017-09-28T00:54:17.942Z,55.5
2017-09-28T00:55:19.762Z,55.5
2017-09-28T00:56:21.888Z,55.3
2017-09-28T00:57:24.015Z,55.5
2017-09-28T00:58:26.141Z,55.5
2017-09-28T00:59:28.271Z,56
2017-09-28T01:00:30.063Z,55.5
2017-09-28T01:01:31.854Z,55.5
2017-09-28T01:02:33.301Z,55.5
2017-09-28T01:03:35.428Z,55.5
2017-09-28T01:04:36.862Z,56.1
2017-09-28T01:05:38.653Z,55.6
2017-09-28T01:06:40.780Z,56.1
2017-09-28T01:07:42.237Z,56.2
2017-09-28T01:08:44.364Z,55.9
2017-09-28T01:09:45.798Z,55.6
2017-09-28T01:10:46.896Z,55.5
2017-09-28T01:11:48.697Z,55.5
2017-09-28T01:12:50.154Z,55.5
2017-09-28T01:13:52.282Z,56
2017-09-28T01:14:54.074Z,55.5
2017-09-28T01:15:55.848Z,55.5
2017-09-28T01:16:57.972Z,56.1
2017-09-28T01:17:59.408Z,55.7
2017-09-28T01:19:01.534Z,55.5
2017-09-28T01:20:02.975Z,55.7
2017-09-28T01:21:04.435Z,56.1
2017-09-28T01:22:05.541Z,55.4
2017-09-28T01:23:07.697Z,55.5
2017-09-28T01:24:09.491Z,55.4
2017-09-28T01:25:11.620Z,55.5
2017-09-28T01:26:13.059Z,55.6
2017-09-28T01:27:14.830Z,55.5
2017-09-28T01:28:16.623Z,55.5
2017-09-28T01:29:18.392Z,55.5
2017-09-28T01:30:19.827Z,56
2017-09-28T01:31:21.649Z,56.2
2017-09-28T01:32:23.419Z,55.9
2017-09-28T01:33:25.190Z,55.4
2017-09-28T01:34:27.318Z,55.6
2017-09-28T01:35:29.111Z,55.4
2017-09-28T01:36:30.901Z,55.9
2017-09-28T01:37:33.038Z,55.5
2017-09-28T01:38:35.163Z,56
2017-09-28T01:39:36.262Z,55.5
2017-09-28T01:40:38.053Z,55.5
2017-09-28T01:41:40.180Z,55.7
2017-09-28T01:42:41.974Z,55.5
2017-09-28T01:43:43.767Z,55.5
2017-09-28T01:44:45.560Z,55.4
2017-09-28T01:45:47.685Z,55.4
2017-09-28T01:46:49.476Z,55.5
2017-09-28T01:47:51.269Z,55.5
2017-09-28T01:48:52.730Z,55.5
2017-09-28T01:49:54.859Z,55.5
2017-09-28T01:50:56.983Z,56
2017-09-28T01:51:58.081Z,55.4
2017-09-28T01:52:59.538Z,55.6
2017-09-28T01:54:01.331Z,55.5
2017-09-28T01:55:02.433Z,55.5
2017-09-28T01:56:04.560Z,55.6
2017-09-28T01:57:06.349Z,55.5
2017-09-28T01:58:08.141Z,55.6
2017-09-28T01:59:09.579Z,55.6
2017-09-28T02:00:10.677Z,55.6
2017-09-28T02:01:12.469Z,55.7
2017-09-28T02:02:13.926Z,55.5
2017-09-28T02:03:16.053Z,55.5
2017-09-28T02:04:18.197Z,55.6
2017-09-28T02:05:19.329Z,55.7
2017-09-28T02:06:21.457Z,55.6
2017-09-28T02:07:23.259Z,55.5
2017-09-28T02:08:25.385Z,55.6
2017-09-28T02:09:26.821Z,55.7
2017-09-28T02:10:28.279Z,55.6
2017-09-28T02:11:30.071Z,55.8
2017-09-28T02:12:32.212Z,55.7
2017-09-28T02:13:33.648Z,55.6
2017-09-28T02:14:35.416Z,55.6
2017-09-28T02:15:37.594Z,55.6
2017-09-28T02:16:39.032Z,55.8
2017-09-28T02:17:40.824Z,55.6
2017-09-28T02:18:42.259Z,55.7
2017-09-28T02:19:43.760Z,55.5
2017-09-28T02:20:45.531Z,55.7
2017-09-28T02:21:47.307Z,55.7
2017-09-28T02:22:48.410Z,55.8
2017-09-28T02:23:50.204Z,55.6
2017-09-28T02:24:51.304Z,55.7
2017-09-28T02:25:53.096Z,55.8
2017-09-28T02:26:54.890Z,55.8
2017-09-28T02:27:56.685Z,55.8
2017-09-28T02:28:58.489Z,55.5
2017-09-28T02:30:00.329Z,55.5
2017-09-28T02:31:01.762Z,55.6
2017-09-28T02:32:03.889Z,55.5
2017-09-28T02:33:06.015Z,55.8
2017-09-28T02:34:07.811Z,55.5
2017-09-28T02:35:09.246Z,55.5
2017-09-28T02:36:11.059Z,55.5
2017-09-28T02:37:12.515Z,55.3
2017-09-28T02:38:14.663Z,55.5
2017-09-28T02:39:16.120Z,55.7
2017-09-28T02:40:18.246Z,55.6
2017-09-28T02:41:19.367Z,55.7
2017-09-28T02:42:21.502Z,55.6
2017-09-28T02:43:22.931Z,55.8
2017-09-28T02:44:25.057Z,55.6
2017-09-28T02:45:26.847Z,55.5
2017-09-28T02:46:28.638Z,55.5
2017-09-28T02:47:30.408Z,55.4
2017-09-28T02:48:32.534Z,55.6
2017-09-28T02:49:34.662Z,55.8
2017-09-28T02:50:36.118Z,55.6
2017-09-28T02:51:38.249Z,55.7
2017-09-28T02:52:40.040Z,55.7
2017-09-28T02:53:41.498Z,55.5
2017-09-28T02:54:43.625Z,55.6
2017-09-28T02:55:45.751Z,55.6
2017-09-28T02:56:47.568Z,55.4
2017-09-28T02:57:49.356Z,55.4
2017-09-28T02:58:51.482Z,55.7
2017-09-28T02:59:52.939Z,55.5
2017-09-28T03:00:54.376Z,55.7
2017-09-28T03:01:55.813Z,55.7
2017-09-28T03:02:57.584Z,55.5
2017-09-28T03:03:58.707Z,55.6
2017-09-28T03:05:00.847Z,55.4
2017-09-28T03:06:02.994Z,55.5
2017-09-28T03:07:04.444Z,55.6
2017-09-28T03:08:05.880Z,55.7
2017-09-28T03:09:07.652Z,55.7
2017-09-28T03:10:09.421Z,55.5
2017-09-28T03:11:10.878Z,55.5
2017-09-28T03:12:12.337Z,55.6
2017-09-28T03:13:13.105Z,55.5
2017-09-28T03:14:14.565Z,55.6
2017-09-28T03:15:16.692Z,55.7
2017-09-28T03:16:17.793Z,55.6
2017-09-28T03:17:19.585Z,55.6
2017-09-28T03:18:21.391Z,55.5
2017-09-28T03:19:23.514Z,55.6
2017-09-28T03:20:24.949Z,55.6
2017-09-28T03:21:27.085Z,55.4
2017-09-28T03:22:28.539Z,55.4
2017-09-28T03:23:30.311Z,55.7
2017-09-28T03:24:31.769Z,55.6
2017-09-28T03:25:32.893Z,55.6
2017-09-28T03:26:34.659Z,55.8
2017-09-28T03:27:36.453Z,55.7
2017-09-28T03:28:37.887Z,55.6
2017-09-28T03:29:39.682Z,55.6
2017-09-28T03:30:41.115Z,55.8
2017-09-28T03:31:42.905Z,55.6
2017-09-28T03:32:44.699Z,55.8
2017-09-28T03:33:46.841Z,55.8
2017-09-28T03:34:47.926Z,55.5
2017-09-28T03:35:50.052Z,55.7
2017-09-28T03:36:51.844Z,55.5
2017-09-28T03:37:53.301Z,55.6
2017-09-28T03:38:55.429Z,55.7
2017-09-28T03:39:57.559Z,55.7
2017-09-28T03:40:58.686Z,55.8
2017-09-28T03:42:00.816Z,55.7
2017-09-28T03:43:02.272Z,55.7
2017-09-28T03:44:03.730Z,55.7
2017-09-28T03:45:05.856Z,55.8
2017-09-28T03:46:07.982Z,55.7
2017-09-28T03:47:09.776Z,55.7
2017-09-28T03:48:11.213Z,55.8
2017-09-28T03:49:12.334Z,55.3
2017-09-28T03:50:14.460Z,55.9
2017-09-28T03:51:16.254Z,55.7
2017-09-28T03:52:18.034Z,55.8
2017-09-28T03:53:19.804Z,55.6
2017-09-28T03:54:21.930Z,55.8
2017-09-28T03:55:23.703Z,55.8
2017-09-28T03:56:25.495Z,55.7
2017-09-28T03:57:27.624Z,55.9
2017-09-28T03:58:29.082Z,55.8
2017-09-28T03:59:30.876Z,55.5
2017-09-28T04:00:32.330Z,55.9
2017-09-28T04:01:33.429Z,55.9
2017-09-28T04:02:34.865Z,55.4
2017-09-28T04:03:36.993Z,55.9
2017-09-28T04:04:38.104Z,55.5
2017-09-28T04:05:40.230Z,55.4
2017-09-28T04:06:41.998Z,55.3
2017-09-28T04:07:43.791Z,55.8
2017-09-28T04:08:45.918Z,55.8
2017-09-28T04:09:48.045Z,55.5
2017-09-28T04:10:50.170Z,55.7
2017-09-28T04:11:52.301Z,55.8
2017-09-28T04:12:53.760Z,55.5
2017-09-28T04:13:55.217Z,55.8
2017-09-28T04:14:56.652Z,55.3
2017-09-28T04:15:58.442Z,55.7
2017-09-28T04:16:59.911Z,55.6
2017-09-28T04:18:01.351Z,55.5
2017-09-28T04:19:03.143Z,55.3
2017-09-28T04:20:05.291Z,55.5
2017-09-28T04:21:06.718Z,55.8
2017-09-28T04:22:08.850Z,55.6
2017-09-28T04:23:10.639Z,55.8
2017-09-28T04:24:12.430Z,55.4
2017-09-28T04:25:14.557Z,55.2
2017-09-28T04:26:16.022Z,55
2017-09-28T04:27:18.171Z,55.2
2017-09-28T04:28:20.299Z,55.7
2017-09-28T04:29:21.731Z,55.4
2017-09-28T04:30:23.186Z,55.1
2017-09-28T04:31:24.646Z,55.4
2017-09-28T04:32:26.771Z,55.2
2017-09-28T04:33:28.563Z,55.1
2017-09-28T04:34:30.686Z,55.5
2017-09-28T04:35:32.858Z,55.6
2017-09-28T04:36:34.650Z,55.2
2017-09-28T04:37:36.777Z,55.3
2017-09-28T04:38:38.234Z,55.3
2017-09-28T04:39:39.689Z,55.3
2017-09-28T04:40:41.128Z,55.2
2017-09-28T04:41:42.918Z,55.2
2017-09-28T04:42:44.712Z,55.3
2017-09-28T04:43:46.145Z,55.2
2017-09-28T04:44:47.937Z,55.1
2017-09-28T04:45:50.065Z,55.2
2017-09-28T04:46:51.857Z,55.3
2017-09-28T04:47:53.295Z,55
2017-09-28T04:48:55.419Z,55.6
2017-09-28T04:49:57.220Z,55.6
2017-09-28T04:50:58.661Z,55.1
2017-09-28T04:52:00.117Z,55.4
2017-09-28T04:53:02.244Z,55
2017-09-28T04:54:04.370Z,55
2017-09-28T04:55:05.844Z,54.8
2017-09-28T04:56:07.622Z,54.8
2017-09-28T04:57:09.414Z,55.1
2017-09-28T04:58:11.183Z,55
2017-09-28T04:59:12.641Z,55.2
2017-09-28T05:00:14.080Z,55.4
2017-09-28T05:01:16.208Z,55.4
2017-09-28T05:02:18.332Z,55.1
2017-09-28T05:03:20.152Z,54.8
2017-09-28T05:04:21.945Z,55
2017-09-28T05:05:23.051Z,54.9
2017-09-28T05:06:25.192Z,54.9
2017-09-28T05:07:27.318Z,54.9
2017-09-28T05:08:29.111Z,54.9
2017-09-28T05:09:30.916Z,54.9
2017-09-28T05:10:33.032Z,55
2017-09-28T05:11:34.156Z,55.4
2017-09-28T05:12:35.945Z,55.1
2017-09-28T05:13:37.073Z,55.5
2017-09-28T05:14:39.201Z,55
2017-09-28T05:15:41.020Z,55.2
2017-09-28T05:16:42.108Z,55.5
2017-09-28T05:17:43.902Z,55.1
2017-09-28T05:18:46.030Z,55.3
2017-09-28T05:19:47.818Z,55.9
2017-09-28T05:20:48.911Z,55.2
2017-09-28T05:21:51.037Z,55.2
2017-09-28T05:22:53.166Z,55.3
2017-09-28T05:23:55.292Z,55.7
2017-09-28T05:24:57.419Z,55
2017-09-28T05:25:58.522Z,55
2017-09-28T05:27:00.317Z,55.5
2017-09-28T05:28:02.445Z,55.1
2017-09-28T05:29:04.580Z,55.2
2017-09-28T05:30:05.679Z,55.2
2017-09-28T05:31:07.470Z,55
2017-09-28T05:32:09.597Z,55
2017-09-28T05:33:11.722Z,55
2017-09-28T05:34:13.180Z,55.5
2017-09-28T05:35:14.951Z,55.1
2017-09-28T05:36:16.391Z,55.1
2017-09-28T05:37:17.849Z,55.5
2017-09-28T05:38:19.972Z,55.1
2017-09-28T05:39:21.434Z,55.9
2017-09-28T05:40:23.226Z,55.8
2017-09-28T05:41:24.661Z,55.1
2017-09-28T05:42:26.790Z,55
2017-09-28T05:43:28.558Z,55
2017-09-28T05:44:30.687Z,55.2
2017-09-28T05:45:32.814Z,55.1
2017-09-28T05:46:34.940Z,55
2017-09-28T05:47:36.734Z,55
2017-09-28T05:48:38.861Z,55.2
2017-09-28T05:49:40.654Z,55
2017-09-28T05:50:42.091Z,55.1
2017-09-28T05:51:43.882Z,55
2017-09-28T05:52:45.669Z,55.2
2017-09-28T05:53:47.794Z,55.2
2017-09-28T05:54:49.229Z,55.2
2017-09-28T05:55:51.022Z,55.7
2017-09-28T05:56:52.793Z,55.1
2017-09-28T05:57:54.586Z,55.4
2017-09-28T05:58:56.025Z,55.5
2017-09-28T05:59:57.483Z,54.9
2017-09-28T06:00:59.280Z,54.9
2017-09-28T06:02:00.435Z,55
2017-09-28T06:03:02.637Z,54.9
2017-09-28T06:04:04.074Z,54.9
2017-09-28T06:05:05.869Z,55
2017-09-28T06:06:07.995Z,54.8
2017-09-28T06:07:10.122Z,54.9
2017-09-28T06:08:11.713Z,55
2017-09-28T06:09:13.505Z,55.6
2017-09-28T06:10:15.303Z,55
2017-09-28T06:11:16.407Z,55.1
2017-09-28T06:12:18.203Z,55.1
2017-09-28T06:13:19.977Z,55.4
2017-09-28T06:14:21.769Z,55.1
2017-09-28T06:15:23.568Z,55.4
2017-09-28T06:16:25.701Z,55.2
2017-09-28T06:17:27.828Z,54.9
2017-09-28T06:18:29.958Z,55.2
2017-09-28T06:19:31.395Z,55.3
2017-09-28T06:20:33.521Z,55.5
2017-09-28T06:21:35.301Z,55.5
2017-09-28T06:22:37.429Z,55.2
2017-09-28T06:23:39.608Z,55.5
2017-09-28T06:24:41.740Z,55.3
2017-09-28T06:25:43.534Z,55.2
2017-09-28T06:26:45.305Z,55.3
2017-09-28T06:27:47.099Z,55.3
2017-09-28T06:28:49.250Z,55.3
2017-09-28T06:29:51.041Z,55.2
2017-09-28T06:30:52.163Z,55.1
2017-09-28T06:31:53.957Z,55.3
2017-09-28T06:32:55.747Z,55.3
2017-09-28T06:33:57.889Z,55.2
2017-09-28T06:34:58.988Z,55.5
2017-09-28T06:36:00.784Z,55.3
2017-09-28T06:37:02.908Z,55.7
2017-09-28T06:38:04.704Z,55.1
2017-09-28T06:39:06.494Z,55.2
2017-09-28T06:40:08.623Z,55
2017-09-28T06:41:10.415Z,55.2
2017-09-28T06:42:11.514Z,55.2
2017-09-28T06:43:13.306Z,55.2
2017-09-28T06:44:15.084Z,55.7
2017-09-28T06:45:16.541Z,55.2
2017-09-28T06:46:18.026Z,55.3
2017-09-28T06:47:19.826Z,55.1
2017-09-28T06:48:21.617Z,55.1
2017-09-28T06:49:22.729Z,55.2
2017-09-28T06:50:24.190Z,55.1
2017-09-28T06:51:26.337Z,55.1
2017-09-28T06:52:28.470Z,55.3
2017-09-28T06:53:29.909Z,55.2
2017-09-28T06:54:31.704Z,55.3
2017-09-28T06:55:33.174Z,55.1
2017-09-28T06:56:35.348Z,55.3
2017-09-28T06:57:37.158Z,55.1
2017-09-28T06:58:39.284Z,54.9
2017-09-28T06:59:40.894Z,54.9
2017-09-28T07:00:42.689Z,55
2017-09-28T07:01:44.459Z,54.8
2017-09-28T07:02:46.589Z,55.5
2017-09-28T07:03:48.716Z,55.7
2017-09-28T07:04:50.841Z,55.2
2017-09-28T07:05:52.302Z,55
2017-09-28T07:06:54.095Z,55.1
2017-09-28T07:07:56.231Z,55
2017-09-28T07:08:58.364Z,55
2017-09-28T07:10:00.491Z,55.1
2017-09-28T07:11:02.284Z,55.4
2017-09-28T07:12:04.411Z,54.8
2017-09-28T07:13:06.209Z,54.9
2017-09-28T07:14:08.334Z,55.4
2017-09-28T07:15:10.470Z,55
2017-09-28T07:16:12.590Z,55
2017-09-28T07:17:13.694Z,54.8
2017-09-28T07:18:15.486Z,55.2
2017-09-28T07:19:17.613Z,55.2
2017-09-28T07:20:19.380Z,55.6
2017-09-28T07:21:21.505Z,54.8
2017-09-28T07:22:23.635Z,55.4
2017-09-28T07:23:25.764Z,55.1
2017-09-28T07:24:27.894Z,55.2
2017-09-28T07:25:30.022Z,55.1
2017-09-28T07:26:31.457Z,55.2
2017-09-28T07:27:33.256Z,55.3
2017-09-28T07:28:35.044Z,55.1
2017-09-28T07:29:36.839Z,55.3
2017-09-28T07:30:38.346Z,55.7
2017-09-28T07:31:40.142Z,55.1
2017-09-28T07:32:41.931Z,55.3
2017-09-28T07:33:43.389Z,55.1
2017-09-28T07:34:44.494Z,55.5
2017-09-28T07:35:46.284Z,55.2
2017-09-28T07:36:47.389Z,55.3
2017-09-28T07:37:49.182Z,55.2
2017-09-28T07:38:50.981Z,55.5
2017-09-28T07:39:52.774Z,55.4
2017-09-28T07:40:54.571Z,55.2
2017-09-28T07:41:56.362Z,55.4
2017-09-28T07:42:58.178Z,55.5
2017-09-28T07:43:59.688Z,55.4
2017-09-28T07:45:01.818Z,55.1
2017-09-28T07:46:02.919Z,55.4
2017-09-28T07:47:04.370Z,55.6
2017-09-28T07:48:06.498Z,55.4
2017-09-28T07:49:07.960Z,55.5
2017-09-28T07:50:09.751Z,55.3
2017-09-28T07:51:11.594Z,55.4
2017-09-28T07:52:13.722Z,55.7
2017-09-28T07:53:15.164Z,55.3
2017-09-28T07:54:16.620Z,55.6
2017-09-28T07:55:18.413Z,55.4
2017-09-28T07:56:20.209Z,55.5
2017-09-28T07:57:21.668Z,55.8
2017-09-28T07:58:23.812Z,55.6
2017-09-28T07:59:25.606Z,55.8
2017-09-28T08:00:27.736Z,55.4
2017-09-28T08:01:29.169Z,55.9
2017-09-28T08:02:30.311Z,55.9
2017-09-28T08:03:31.750Z,55.5
2017-09-28T08:04:33.526Z,55.6
2017-09-28T08:05:35.295Z,55.4
2017-09-28T08:06:37.087Z,55.4
2017-09-28T08:07:38.191Z,55.7
2017-09-28T08:08:39.677Z,55.7
2017-09-28T08:09:41.125Z,55.6
2017-09-28T08:10:42.583Z,55.7
2017-09-28T08:11:44.353Z,55.7
2017-09-28T08:12:45.485Z,55.5
2017-09-28T08:13:46.922Z,55.7
2017-09-28T08:14:48.713Z,55.7
2017-09-28T08:15:50.486Z,55.6
2017-09-28T08:16:51.941Z,55.7
2017-09-28T08:17:53.376Z,55.7
2017-09-28T08:18:55.503Z,55.5
2017-09-28T08:19:56.629Z,55.4
2017-09-28T08:20:58.757Z,55.9
2017-09-28T08:22:00.596Z,55.5
2017-09-28T08:23:02.368Z,55.5
2017-09-28T08:24:03.468Z,55.6
2017-09-28T08:25:04.239Z,55.7
2017-09-28T08:26:05.342Z,55.9
2017-09-28T08:27:06.518Z,55.9
2017-09-28T08:28:08.646Z,55.9
2017-09-28T08:29:10.772Z,55.6
2017-09-28T08:30:12.570Z,55.5
2017-09-28T08:31:14.713Z,55.5
2017-09-28T08:32:16.301Z,55.5
2017-09-28T08:33:17.759Z,55.7
2017-09-28T08:34:19.887Z,55.6
2017-09-28T08:35:21.678Z,55.6
2017-09-28T08:36:23.115Z,55.7
2017-09-28T08:37:25.343Z,55.6
2017-09-28T08:38:26.778Z,55.5
2017-09-28T08:39:28.216Z,55.6
2017-09-28T08:40:29.655Z,55.7
2017-09-28T08:41:31.460Z,55.7
2017-09-28T08:42:33.227Z,55.6
2017-09-28T08:43:35.355Z,55.6
2017-09-28T08:44:36.812Z,55.6
2017-09-28T08:45:38.605Z,55.4
2017-09-28T08:46:40.737Z,55.4
2017-09-28T08:47:42.534Z,55.5
2017-09-28T08:48:43.633Z,55.6
2017-09-28T08:49:45.074Z,55.6
2017-09-28T08:50:46.513Z,56.2
2017-09-28T08:51:48.640Z,55.6
2017-09-28T08:52:50.412Z,55.8
2017-09-28T08:53:51.851Z,55.8
2017-09-28T08:54:53.642Z,55.7
2017-09-28T08:55:55.441Z,55.5
2017-09-28T08:56:56.551Z,55.6
2017-09-28T08:57:57.316Z,55.5
2017-09-28T08:58:59.451Z,55.9
2017-09-28T09:00:00.575Z,55.5
2017-09-28T09:01:02.698Z,55.5
2017-09-28T09:02:04.826Z,55.5
2017-09-28T09:03:06.668Z,55.5
2017-09-28T09:04:08.802Z,55.9
2017-09-28T09:05:10.935Z,55.2
2017-09-28T09:06:12.709Z,55.5
2017-09-28T09:07:14.492Z,55
2017-09-28T09:08:16.291Z,55.3
2017-09-28T09:09:17.750Z,55.5
2017-09-28T09:10:19.896Z,55.6
2017-09-28T09:11:22.071Z,55.6
2017-09-28T09:12:23.866Z,55.5
2017-09-28T09:13:25.814Z,55.2
2017-09-28T09:14:27.613Z,55.2
2017-09-28T09:15:29.742Z,55
2017-09-28T09:16:31.873Z,55.1
2017-09-28T09:17:33.671Z,54.9
2017-09-28T09:18:35.107Z,54.9
2017-09-28T09:19:36.550Z,54.9
2017-09-28T09:20:38.679Z,55.2
2017-09-28T09:21:40.481Z,55.3
2017-09-28T09:22:41.909Z,55.1
2017-09-28T09:23:43.706Z,55.1
2017-09-28T09:24:45.833Z,55.1
2017-09-28T09:25:47.296Z,55.3
2017-09-28T09:26:49.429Z,55.4
2017-09-28T09:27:50.534Z,54.8
2017-09-28T09:28:52.357Z,54.8
2017-09-28T09:29:53.783Z,54.8
2017-09-28T09:30:55.909Z,54.8
2017-09-28T09:31:57.010Z,54.8
2017-09-28T09:32:58.787Z,54.8
2017-09-28T09:34:00.583Z,54.8
2017-09-28T09:35:01.688Z,55.1
2017-09-28T09:36:03.458Z,54.9
2017-09-28T09:37:05.250Z,55.1
2017-09-28T09:38:07.064Z,55.1
2017-09-28T09:39:08.525Z,54.8
2017-09-28T09:40:10.321Z,55.2
2017-09-28T09:41:11.425Z,55.2
2017-09-28T09:42:12.889Z,55.3
2017-09-28T09:43:15.018Z,54.8
2017-09-28T09:44:17.154Z,55.2
2017-09-28T09:45:19.305Z,54.8
2017-09-28T09:46:21.439Z,55.1
2017-09-28T09:47:23.234Z,55.2
2017-09-28T09:48:25.031Z,55.4
2017-09-28T09:49:27.167Z,54.7
2017-09-28T09:50:28.613Z,55.2
2017-09-28T09:51:30.404Z,55.4
2017-09-28T09:52:32.535Z,55
2017-09-28T09:53:33.972Z,54.8
2017-09-28T09:54:36.104Z,55
2017-09-28T09:55:37.542Z,55.1
2017-09-28T09:56:38.312Z,54.8
2017-09-28T09:57:40.120Z,55
2017-09-28T09:58:41.614Z,55
2017-09-28T09:59:43.769Z,55.2
2017-09-28T10:00:45.236Z,55.1
2017-09-28T10:01:46.749Z,55.2
2017-09-28T10:02:48.638Z,55
2017-09-28T10:03:50.256Z,55
2017-09-28T10:04:51.521Z,55.2
2017-09-28T10:05:53.396Z,54.8
2017-09-28T10:06:54.687Z,54.9
2017-09-28T10:07:56.296Z,55.4
2017-09-28T10:08:57.761Z,54.9
2017-09-28T10:09:58.877Z,54.8
2017-09-28T10:11:00.041Z,54.8
2017-09-28T10:12:02.244Z,54.8
2017-09-28T10:13:03.791Z,54.9
2017-09-28T10:14:05.676Z,54.8
2017-09-28T10:15:07.245Z,55
2017-09-28T10:16:09.485Z,55.3
2017-09-28T10:17:11.290Z,55.3
2017-09-28T10:18:13.438Z,55.2
2017-09-28T10:19:15.255Z,54.7
2017-09-28T10:20:16.729Z,54.9
2017-09-28T10:21:18.926Z,54.7
2017-09-28T10:22:20.874Z,54.7
2017-09-28T10:23:22.093Z,54.8
2017-09-28T10:24:24.637Z,54.7
2017-09-28T10:25:26.657Z,54.7
2017-09-28T10:26:28.236Z,54.7
2017-09-28T10:27:30.445Z,54.9
2017-09-28T10:28:32.483Z,55.3
2017-09-28T10:29:34.955Z,55.1
2017-09-28T10:30:36.812Z,54.9
2017-09-28T10:31:38.680Z,55
2017-09-28T10:32:40.481Z,54.8
2017-09-28T10:33:42.036Z,54.8
2017-09-28T10:34:44.288Z,54.9
2017-09-28T10:35:46.364Z,54.9
2017-09-28T10:36:48.944Z,55
2017-09-28T10:37:50.839Z,54.7
2017-09-28T10:38:52.733Z,54.8
2017-09-28T10:39:54.815Z,54.9
2017-09-28T10:40:56.802Z,54.8
2017-09-28T10:41:58.337Z,54.7
2017-09-28T10:43:00.208Z,55
2017-09-28T10:44:02.447Z,54.7
2017-09-28T10:45:04.384Z,54.9
2017-09-28T10:46:07.223Z,54.7
2017-09-28T10:47:09.909Z,54.8
2017-09-28T10:48:11.895Z,54.8
2017-09-28T10:49:13.745Z,54.7
2017-09-28T10:50:15.671Z,55
2017-09-28T10:51:17.641Z,54.7
2017-09-28T10:52:20.775Z,54.7
2017-09-28T10:53:23.288Z,55.3
2017-09-28T10:54:25.431Z,55.2
2017-09-28T10:55:26.542Z,55.4
2017-09-28T10:56:28.701Z,54.9
2017-09-28T10:57:30.508Z,54.8
2017-09-28T10:58:31.989Z,55.2
2017-09-28T10:59:33.096Z,55.3
2017-09-28T11:00:34.899Z,55.1
2017-09-28T11:01:36.708Z,55.3
2017-09-28T11:02:38.541Z,55.4
2017-09-28T11:03:40.122Z,55
2017-09-28T11:04:41.569Z,55.2
2017-09-28T11:05:43.700Z,54.8
2017-09-28T11:06:45.143Z,54.7
2017-09-28T11:07:46.936Z,54.8
2017-09-28T11:08:48.734Z,54.7
2017-09-28T11:09:49.838Z,55
2017-09-28T11:10:51.277Z,55
2017-09-28T11:11:53.406Z,54.7
2017-09-28T11:12:55.205Z,54.6
2017-09-28T11:13:56.650Z,54.7
2017-09-28T11:14:57.753Z,54.7
2017-09-28T11:15:59.549Z,54.7
2017-09-28T11:17:00.322Z,54.6
2017-09-28T11:18:02.128Z,54.8
2017-09-28T11:19:03.560Z,54.8
2017-09-28T11:20:05.002Z,54.6
2017-09-28T11:21:07.131Z,54.8
2017-09-28T11:22:09.257Z,54.8
2017-09-28T11:23:10.694Z,54.9
2017-09-28T11:24:12.827Z,54.9
2017-09-28T11:25:14.268Z,55.1
2017-09-28T11:26:15.731Z,54.8
2017-09-28T11:27:17.523Z,55.2
2017-09-28T11:28:19.656Z,55
2017-09-28T11:29:21.427Z,55
2017-09-28T11:30:23.203Z,55
2017-09-28T11:31:24.336Z,54.9
2017-09-28T11:32:25.775Z,54.8
2017-09-28T11:33:27.235Z,55.2
2017-09-28T11:34:28.679Z,55.1
2017-09-28T11:35:30.477Z,54.8
2017-09-28T11:36:32.270Z,54.7
2017-09-28T11:37:34.403Z,55
2017-09-28T11:38:35.858Z,54.7
2017-09-28T11:39:37.656Z,54.7
2017-09-28T11:40:39.436Z,55.1
2017-09-28T11:41:41.232Z,55
2017-09-28T11:42:42.672Z,54.8
2017-09-28T11:43:44.802Z,55.1
2017-09-28T11:44:46.601Z,55.1
2017-09-28T11:45:48.735Z,54.9
2017-09-28T11:46:50.525Z,55.2
2017-09-28T11:47:52.302Z,54.9
2017-09-28T11:48:54.095Z,55.1
2017-09-28T11:49:55.555Z,55.2
2017-09-28T11:50:57.368Z,55.1
2017-09-28T11:51:59.595Z,54.8
2017-09-28T11:53:01.040Z,54.7
2017-09-28T11:54:02.832Z,54.9
2017-09-28T11:55:04.298Z,54.6
2017-09-28T11:56:05.733Z,54.7
2017-09-28T11:57:07.194Z,54.9
2017-09-28T11:58:08.987Z,54.5
2017-09-28T11:59:10.424Z,54.3
2017-09-28T12:00:12.209Z,54.3
2017-09-28T12:01:13.635Z,54.3
2017-09-28T12:02:15.073Z,54.4
2017-09-28T12:03:16.845Z,54.3
2017-09-28T12:04:18.289Z,54.6
2017-09-28T12:05:20.081Z,54.5
2017-09-28T12:06:22.276Z,54.3
2017-09-28T12:07:24.121Z,54.3
2017-09-28T12:08:25.231Z,54.2
2017-09-28T12:09:26.385Z,54.3
2017-09-28T12:10:28.180Z,54.2
2017-09-28T12:11:29.632Z,54.3
2017-09-28T12:12:31.253Z,54.7
2017-09-28T12:13:32.823Z,54.3
2017-09-28T12:14:34.791Z,54.5
2017-09-28T12:15:36.733Z,54.2
2017-09-28T12:16:37.514Z,54.6
2017-09-28T12:17:39.288Z,54.3
2017-09-28T12:18:41.442Z,54.5
2017-09-28T12:19:44.052Z,54.3
2017-09-28T12:20:45.850Z,54.2
2017-09-28T12:21:47.647Z,54.5
2017-09-28T12:22:49.448Z,54.4
2017-09-28T12:23:51.246Z,54.4
2017-09-28T12:24:52.359Z,54.4
2017-09-28T12:25:53.829Z,54.2
2017-09-28T12:26:55.955Z,54.2
2017-09-28T12:27:57.059Z,54.4
2017-09-28T12:28:58.855Z,54.3
2017-09-28T12:29:59.965Z,54.3
2017-09-28T12:31:02.096Z,54.3
2017-09-28T12:32:03.534Z,54.3
2017-09-28T12:33:05.335Z,54.3
2017-09-28T12:34:07.131Z,54.8
2017-09-28T12:35:08.908Z,54.3
2017-09-28T12:36:10.684Z,54.1
2017-09-28T12:37:12.476Z,54.4
2017-09-28T12:38:13.588Z,54.4
2017-09-28T12:39:15.053Z,54.4
2017-09-28T12:40:16.855Z,54.3
2017-09-28T12:41:18.988Z,54.3
2017-09-28T12:42:20.121Z,54.3
2017-09-28T12:43:21.226Z,54.2
2017-09-28T12:44:22.667Z,54.1
2017-09-28T12:45:24.127Z,53.9
2017-09-28T12:46:25.924Z,54.3
2017-09-28T12:47:27.029Z,53.9
2017-09-28T12:48:28.804Z,54.1
2017-09-28T12:49:30.936Z,54
2017-09-28T12:50:33.065Z,54
2017-09-28T12:51:34.840Z,54.1
2017-09-28T12:52:35.941Z,54
2017-09-28T12:53:38.072Z,54.2
2017-09-28T12:54:40.202Z,54.2
2017-09-28T12:55:42.329Z,54.3
2017-09-28T12:56:44.150Z,54.4
2017-09-28T12:57:45.941Z,54.9
2017-09-28T12:58:47.741Z,54.8
2017-09-28T12:59:49.199Z,54.8
2017-09-28T13:00:50.664Z,54.7
2017-09-28T13:01:52.455Z,54.6
2017-09-28T13:02:54.589Z,55.1
2017-09-28T13:03:56.179Z,54.8
2017-09-28T13:04:57.978Z,55.2
2017-09-28T13:05:59.441Z,54.8
2017-09-28T13:07:00.907Z,55.1
2017-09-28T13:08:02.702Z,55.1
2017-09-28T13:09:03.475Z,54.7
2017-09-28T13:10:05.270Z,55.3
2017-09-28T13:11:07.063Z,55.2
2017-09-28T13:12:08.498Z,55.3
2017-09-28T13:13:09.613Z,55.2
2017-09-28T13:14:11.101Z,55.3
2017-09-28T13:15:12.885Z,55.2
2017-09-28T13:16:14.327Z,55.3
2017-09-28T13:17:15.433Z,55.1
2017-09-28T13:18:17.227Z,55.1
2017-09-28T13:19:18.999Z,55.2
2017-09-28T13:20:20.104Z,55
2017-09-28T13:21:21.570Z,55.3
2017-09-28T13:22:22.669Z,54.8
2017-09-28T13:23:24.799Z,55.1
2017-09-28T13:24:26.931Z,55.1
2017-09-28T13:25:29.064Z,54.9
2017-09-28T13:26:30.526Z,55
2017-09-28T13:27:31.989Z,55.4
2017-09-28T13:28:33.785Z,55.3
2017-09-28T13:29:35.919Z,55.1
2017-09-28T13:30:37.717Z,55.2
2017-09-28T13:31:39.186Z,54.9
2017-09-28T13:32:40.636Z,54.7
2017-09-28T13:33:41.748Z,54.9
2017-09-28T13:34:43.984Z,55.2
2017-09-28T13:35:45.425Z,55.2
2017-09-28T13:36:47.564Z,54.8
2017-09-28T13:37:49.692Z,55
2017-09-28T13:38:51.824Z,55.1
2017-09-28T13:39:53.315Z,54.7
2017-09-28T13:40:55.110Z,54.9
2017-09-28T13:41:56.888Z,54.9
2017-09-28T13:42:59.017Z,54.7
2017-09-28T13:44:00.813Z,54.8
2017-09-28T13:45:02.276Z,54.7
2017-09-28T13:46:03.715Z,54.6
2017-09-28T13:47:05.846Z,54.6
2017-09-28T13:48:07.641Z,54.6